Time;durP1;ratioP1;P1;durP2;ratioP2;P2;SDS_P1;SDS_P2;PMS_P1;PMS_P2;Temp;Humidity;BMP_temperature;BMP_pressure;BME280_temperature;BME280_humidity;BME280_pressure;Samples;Min_cycle;Max_cycle;Signal;HPM_P1;HPM_P2
2022/04/01 00:00:46;;;;;;;;;;;;;;;;;;5009931;28;19952;-48
2022/04/01 00:03:11;;;;;;;;;;;;;;;;;;5012914;28;19976;-49
2022/04/01 00:05:40;;;;;;;;;;;;;;;;;;5010663;28;19968;-51
2022/04/01 00:08:06;;;;;;;;;;;;;;;;;;5009771;28;19929;-51
2022/04/01 00:10:32;;;;;;;;;;;;;;;;;;5008007;28;22056;-47
2022/04/01 00:12:58;;;;;;;;;;;;;;;;;;5008753;28;20664;-49
2022/04/01 00:15:24;;;;;;;;;;;;;;;;;;5012076;28;19925;-46
2022/04/01 00:17:50;;;;;;;;;;;;;;;;;;5010753;28;20016;-51
2022/04/01 00:20:18;;;;;;;;;;;;;;;;;;5012728;28;19956;-47
2022/04/01 00:22:44;;;;;;;;;;;;;;;;;;5010251;28;19968;-49
2022/04/01 00:25:10;;;;;;;;;;;;;;;;;;5012074;28;19972;-47
2022/04/01 00:27:35;;;;;;;;;;;;;;;;;;5011887;28;20289;-49
2022/04/01 00:30:02;;;;;;;;;;;;;;;;;;5012597;28;19926;-51
2022/04/01 00:32:28;;;;;;;;;;;;;;;;;;5012149;28;19926;-48
2022/04/01 00:34:54;;;;;;;;;;;;;;;;;;5010739;28;20007;-51
2022/04/01 00:37:20;;;;;;;;;;;;;;;;;;5011917;28;19932;-50
2022/04/01 00:39:45;;;;;;;;;;;;;;;;;;5006305;28;20363;-49
2022/04/01 00:42:12;;;;;;;;;;;;;;;;;;5007544;28;19929;-47
2022/04/01 00:44:38;;;;;;;;;;;;;;;;;;5004890;28;19995;-46
2022/04/01 00:47:03;;;;;;;;;;;;;;;;;;5009855;28;19925;-48
2022/04/01 00:49:29;;;;;;;;;;;;;;;;;;5013910;28;19926;-47
2022/04/01 00:51:55;;;;;;;;;;;;;;;;;;5008716;28;19929;-53
2022/04/01 00:54:21;;;;;;;;;;;;;;;;;;5012500;28;19926;-49
2022/04/01 00:56:47;;;;;;;;;;;;;;;;;;5004572;28;19937;-49
2022/04/01 00:59:13;;;;;;;;;;;;;;;;;;5008490;28;19932;-50
2022/04/01 01:01:40;;;;;;;;;;;;;;;;;;5006740;28;20280;-50
2022/04/01 01:04:07;;;;;;;;;;;;;;;;;;5011404;28;20008;-48
2022/04/01 01:06:33;;;;;;;;;;;;;;;;;;5010573;28;19925;-48
2022/04/01 01:08:59;;;;;;;;;;;;;;;;;;5009167;28;19936;-49
2022/04/01 01:11:25;;;;;;;;;;;;;;;;;;5004569;28;19929;-51
2022/04/01 01:13:51;;;;;;;;;;;;;;;;;;5010077;28;19925;-48
2022/04/01 01:16:17;;;;;;;;;;;;;;;;;;5011603;28;19929;-51
2022/04/01 01:18:43;;;;;;;;;;;;;;;;;;5009303;28;19995;-48
2022/04/01 01:21:09;;;;;;;;;;;;;;;;;;5010021;28;20405;-48
2022/04/01 01:23:35;;;;;;;;;;;;;;;;;;5010206;28;19972;-49
2022/04/01 01:26:01;;;;;;;;;;;;;;;;;;5009455;28;19929;-50
2022/04/01 01:28:27;;;;;;;;;;;;;;;;;;5010029;28;19969;-49
2022/04/01 01:30:54;;;;;;;;;;;;;;;;;;5010044;28;20016;-49
2022/04/01 01:33:20;;;;;;;;;;;;;;;;;;5009494;28;19972;-51
2022/04/01 01:35:46;;;;;;;;;;;;;;;;;;5008647;28;20376;-50
2022/04/01 01:38:12;;;;;;;;;;;;;;;;;;5009477;28;19972;-47
2022/04/01 01:40:38;;;;;;;;;;;;;;;;;;5009296;28;19932;-51
2022/04/01 01:43:04;;;;;;;;;;;;;;;;;;5009702;28;19984;-48
2022/04/01 01:45:29;;;;;;;;;;;;;;;;;;5008093;28;20267;-51
2022/04/01 01:47:55;;;;;;;;;;;;;;;;;;5010140;28;19933;-49
2022/04/01 01:55:52;;;;;;;;;;;;;;;;;;5029227;28;21280;-45
2022/04/01 01:58:18;;;;;;;;;;;;;;;;;;5029016;28;20386;-46
2022/04/01 02:00:45;;;;;;;;;;;;;;;;;;5028040;28;20406;-46
2022/04/01 02:03:11;;;;;;;;;;;;;;;;;;5028034;28;20375;-46
2022/04/01 02:05:37;;;;;;;;;;;;;;;;;;5028554;28;19937;-46
2022/04/01 02:08:05;;;;;;;;;;;;;;;;;;5024070;28;19987;-45
2022/04/01 02:10:31;;;;;;;;;;;;;;;;;;5028492;28;20015;-49
2022/04/01 02:12:58;;;;;;;;;;;;;;;;;;5027539;28;20697;-45
2022/04/01 02:15:23;;;;;;;;;;;;;;;;;;5030841;28;19987;-45
2022/04/01 02:17:49;;;;;;;;;;;;;;;;;;5027574;28;20363;-47
2022/04/01 02:20:15;;;;;;;;;;;;;;;;;;5027050;28;19937;-46
2022/04/01 02:22:41;;;;;;;;;;;;;;;;;;5026472;28;19979;-46
2022/04/01 02:25:07;;;;;;;;;;;;;;;;;;5029019;28;19978;-45
2022/04/01 02:27:33;;;;;;;;;;;;;;;;;;5028322;28;19933;-46
2022/04/01 02:29:59;;;;;;;;;;;;;;;;;;5028688;28;19933;-45
2022/04/01 02:32:25;;;;;;;;;;;;;;;;;;5022791;28;20020;-45
2022/04/01 02:34:51;;;;;;;;;;;;;;;;;;5034473;28;20607;-50
2022/04/01 02:37:20;;;;;;;;;;;;;;;;;;5034014;28;20016;-46
2022/04/01 02:39:46;;;;;;;;;;;;;;;;;;5032844;28;20011;-45
2022/04/01 02:42:12;;;;;;;;;;;;;;;;;;5033151;28;20415;-46
2022/04/01 02:44:39;;;;;;;;;;;;;;;;;;5026958;28;19925;-47
2022/04/01 02:47:06;;;;;;;;;;;;;;;;;;5027828;28;19929;-46
2022/04/01 02:49:32;;;;;;;;;;;;;;;;;;5028663;28;19925;-47
2022/04/01 02:51:58;;;;;;;;;;;;;;;;;;5017536;28;20292;-51
2022/04/01 02:54:24;;;;;;;;;;;;;;;;;;5013895;28;19972;-46
2022/04/01 02:56:50;;;;;;;;;;;;;;;;;;4994928;28;19979;-47
2022/04/01 02:59:16;;;;;;;;;;;;;;;;;;5014626;28;19925;-46
2022/04/01 03:01:42;;;;;;;;;;;;;;;;;;5012442;28;19925;-50
2022/04/01 03:04:11;;;;;;;;;;;;;;;;;;5014590;28;19948;-47
2022/04/01 03:06:37;;;;;;;;;;;;;;;;;;5012591;28;20020;-46
2022/04/01 03:09:03;;;;;;;;;;;;;;;;;;5012564;28;19948;-48
2022/04/01 03:11:30;;;;;;;;;;;;;;;;;;5012818;28;19933;-49
2022/04/01 03:13:57;;;;;;;;;;;;;;;;;;5012308;28;20376;-48
2022/04/01 03:16:23;;;;;;;;;;;;;;;;;;5012576;28;19926;-47
2022/04/01 03:18:49;;;;;;;;;;;;;;;;;;5011867;28;20032;-46
2022/04/01 03:21:15;;;;;;;;;;;;;;;;;;5012040;28;20368;-47
2022/04/01 03:23:40;;;;;;;;;;;;;;;;;;5012410;28;19961;-50
2022/04/01 03:26:06;;;;;;;;;;;;;;;;;;5012898;28;20372;-48
2022/04/01 03:28:33;;;;;;;;;;;;;;;;;;5012191;28;19984;-47
2022/04/01 03:30:59;;;;;;;;;;;;;;;;;;5013386;28;19925;-49
2022/04/01 03:33:25;;;;;;;;;;;;;;;;;;5013132;28;19926;-48
2022/04/01 03:35:52;;;;;;;;;;;;;;;;;;5008798;28;19929;-46
2022/04/01 03:38:18;;;;;;;;;;;;;;;;;;5009494;28;19940;-46
2022/04/01 03:40:43;;;;;;;;;;;;;;;;;;5011243;28;19933;-46
2022/04/01 03:43:09;;;;;;;;;;;;;;;;;;5011989;28;19934;-45
2022/04/01 03:45:35;;;;;;;;;;;;;;;;;;5011741;28;19984;-47
2022/04/01 03:48:01;;;;;;;;;;;;;;;;;;5010880;28;20280;-46
2022/04/01 03:50:28;;;;;;;;;;;;;;;;;;4993813;28;19929;-47
2022/04/01 03:52:54;;;;;;;;;;;;;;;;;;5012694;28;20426;-47
2022/04/01 03:55:19;;;;;;;;;;;;;;;;;;5012705;28;19926;-46
2022/04/01 03:57:45;;;;;;;;;;;;;;;;;;5012425;28;19980;-46
2022/04/01 04:00:14;;;;;;;;;;;;;;;;;;5006088;28;19933;-45
2022/04/01 04:02:40;;;;;;;;;;;;;;;;;;5012704;28;19932;-46
2022/04/01 04:05:07;;;;;;;;;;;;;;;;;;5011751;28;19926;-46
2022/04/01 04:07:33;;;;;;;;;;;;;;;;;;5013400;28;20376;-46
2022/04/01 04:09:59;;;;;;;;;;;;;;;;;;5012225;28;19936;-45
2022/04/01 04:12:25;;;;;;;;;;;;;;;;;;5010358;28;19933;-45
2022/04/01 04:14:51;;;;;;;;;;;;;;;;;;5012530;28;19925;-45
2022/04/01 04:17:17;;;;;;;;;;;;;;;;;;5010593;28;19925;-45
2022/04/01 04:19:43;;;;;;;;;;;;;;;;;;5012792;28;20008;-48
2022/04/01 04:22:09;;;;;;;;;;;;;;;;;;5011559;28;19933;-46
2022/04/01 04:24:35;;;;;;;;;;;;;;;;;;5007460;28;20268;-47
2022/04/01 04:27:01;;;;;;;;;;;;;;;;;;5010577;28;20862;-46
2022/04/01 04:29:27;;;;;;;;;;;;;;;;;;5011222;28;19980;-47
2022/04/01 04:31:52;;;;;;;;;;;;;;;;;;5011899;28;19926;-46
2022/04/01 04:34:19;;;;;;;;;;;;;;;;;;5013149;28;20410;-46
2022/04/01 04:36:45;;;;;;;;;;;;;;;;;;5009675;28;19934;-45
2022/04/01 04:39:11;;;;;;;;;;;;;;;;;;5012151;28;20391;-46
2022/04/01 04:41:37;;;;;;;;;;;;;;;;;;5010319;28;19964;-47
2022/04/01 04:44:03;;;;;;;;;;;;;;;;;;5011605;28;19929;-46
2022/04/01 04:46:30;;;;;;;;;;;;;;;;;;5007882;28;19929;-45
2022/04/01 04:48:56;;;;;;;;;;;;;;;;;;5010876;28;19925;-45
2022/04/01 04:51:23;;;;;;;;;;;;;;;;;;5011112;28;20303;-46
2022/04/01 04:53:49;;;;;;;;;;;;;;;;;;5010049;28;19926;-51
2022/04/01 04:56:15;;;;;;;;;;;;;;;;;;5009651;28;19926;-46
2022/04/01 04:58:43;;;;;;;;;;;;;;;;;;5011177;28;20299;-46
2022/04/01 05:01:09;;;;;;;;;;;;;;;;;;5006588;28;19925;-48
2022/04/01 05:03:35;;;;;;;;;;;;;;;;;;5011976;28;19959;-50
2022/04/01 05:06:01;;;;;;;;;;;;;;;;;;5012503;28;19925;-46
2022/04/01 05:08:27;;;;;;;;;;;;;;;;;;5011002;28;19925;-45
2022/04/01 05:10:53;;;;;;;;;;;;;;;;;;5009317;28;20007;-48
2022/04/01 05:13:19;;;;;;;;;;;;;;;;;;5007036;28;19925;-47
2022/04/01 05:15:45;;;;;;;;;;;;;;;;;;5011133;28;19933;-45
2022/04/01 05:18:12;;;;;;;;;;;;;;;;;;5009696;28;19940;-46
2022/04/01 05:20:38;;;;;;;;;;;;;;;;;;4994580;28;19933;-50
2022/04/01 05:23:06;;;;;;;;;;;1.10;99.90;;;;;;4994268;28;20595;-48
2022/04/01 05:25:35;;;;;;;;;;;1.10;99.90;;;;;;5011349;28;19934;-48
2022/04/01 05:28:01;;;;;;;;;;;0.90;99.90;;;;;;5011004;28;19925;-48
2022/04/01 05:30:30;;;;;;;;;;;1.00;99.90;;;;;;5011017;28;20012;-49
2022/04/01 05:33:00;;;;;;;;;;;1.00;99.90;;;;;;5011968;28;20019;-48
2022/04/01 05:35:26;;;;;;;;;;;1.00;99.90;;;;;;5010667;28;19980;-48
2022/04/01 05:37:53;;;;;;;;;;;1.10;99.90;;;;;;4992404;28;19926;-49
2022/04/01 05:40:21;;;;;;;;;;;1.10;99.90;;;;;;5009225;28;20375;-47
2022/04/01 05:42:47;;;;;;;;;;;1.20;99.90;;;;;;5011178;28;19925;-51
2022/04/01 05:45:13;;;;;;;;;;;1.20;99.90;;;;;;5009523;28;19990;-49
2022/04/01 05:47:38;;;;;;;;;;;1.30;99.90;;;;;;5010602;28;19964;-46
2022/04/01 05:50:06;;;;;;;;;;;1.20;99.90;;;;;;5009826;28;20444;-50
2022/04/01 05:52:34;;;;;;;;;;;1.30;99.90;;;;;;5012717;28;20348;-46
2022/04/01 05:55:00;;;;;;;;;;;1.20;99.90;;;;;;5006590;28;19934;-50
2022/04/01 05:57:26;;;;;;;;;;;1.40;99.90;;;;;;5004310;28;19934;-51
2022/04/01 05:59:51;;;;;;;;;;;1.40;99.90;;;;;;5011542;28;20265;-47
2022/04/01 06:02:17;;;;;;;;;;;1.40;99.90;;;;;;5007069;28;20029;-48
2022/04/01 06:05:01;;;;;;;;;;;1.40;99.90;;;;;;5008298;28;19940;-45
2022/04/01 06:07:52;;;;;;;;;;;1.40;99.90;;;;;;5011549;28;20415;-46
2022/04/01 06:10:21;;;;;;;;;;;1.40;99.90;;;;;;4996023;28;19934;-47
2022/04/01 06:12:52;;;;;;;;;;;1.50;99.90;;;;;;5014449;28;19925;-46
2022/04/01 06:15:34;;;;;;;;;;;1.60;99.90;;;;;;5015531;28;19926;-47
2022/04/01 06:18:11;;;;;;;;;;;1.50;99.90;;;;;;5015269;28;20454;-46
2022/04/01 06:20:38;;;;;;;;;;;1.60;99.90;;;;;;5012286;28;19933;-45
2022/04/01 06:23:12;;;;;;;;;;;1.60;99.90;;;;;;5015550;28;19929;-45
2022/04/01 06:25:40;;;;;;;;;;;1.70;99.90;;;;;;5015247;28;20280;-47
2022/04/01 06:28:16;;;;;;;;;;;1.70;99.90;;;;;;5013053;28;20008;-49
2022/04/01 06:30:42;;;;;;;;;;;1.70;99.90;;;;;;5013885;28;19930;-45
2022/04/01 06:33:25;;;;;;;;;;;1.80;99.90;;;;;;5014233;28;19979;-46
2022/04/01 06:35:54;;;;;;;;;;;1.80;99.90;;;;;;5014569;28;19932;-46
2022/04/01 06:38:39;;;;;;;;;;;1.90;99.90;;;;;;5013707;28;19925;-46
2022/04/01 06:41:06;;;;;;;;;;;1.90;99.90;;;;;;5013239;28;19925;-46
2022/04/01 06:43:32;;;;;;;;;;;2.00;99.90;;;;;;5012700;28;19926;-48
2022/04/01 06:45:58;;;;;;;;;;;2.00;99.90;;;;;;5016039;28;19932;-46
2022/04/01 06:48:23;;;;;;;;;;;2.10;99.90;;;;;;5016789;28;19929;-47
2022/04/01 06:50:52;;;;;;;;;;;2.10;99.90;;;;;;5016368;28;19952;-47
2022/04/01 06:53:17;;;;;;;;;;;2.20;99.90;;;;;;5016999;28;19921;-46
2022/04/01 06:55:43;;;;;;;;;;;2.00;99.90;;;;;;4998240;28;20439;-46
2022/04/01 06:58:11;;;;;;;;;;;1.90;99.90;;;;;;5013514;28;19972;-47
2022/04/01 07:00:40;;;;;;;;;;;2.10;99.90;;;;;;5013068;28;19926;-46
2022/04/01 07:03:07;;;;;;;;;;;2.20;99.90;;;;;;5012043;28;19925;-46
2022/04/01 07:05:34;;;;;;;;;;;2.10;99.90;;;;;;5006305;28;20012;-46
2022/04/01 07:08:03;;;;;;;;;;;2.30;99.90;;;;;;5013442;28;19925;-46
2022/04/01 07:10:29;;;;;;;;;;;2.30;99.90;;;;;;5012078;28;19965;-46
2022/04/01 07:12:54;;;;;;;;;;;2.30;99.90;;;;;;5012613;28;20000;-46
2022/04/01 07:15:20;;;;;;;;;;;2.40;99.90;;;;;;5014330;28;20471;-46
2022/04/01 07:17:46;;;;;;;;;;;2.50;99.90;;;;;;5014221;28;20368;-49
2022/04/01 07:20:12;;;;;;;;;;;2.40;99.90;;;;;;5013165;28;20382;-46
2022/04/01 07:22:40;;;;;;;;;;;2.50;99.90;;;;;;4995440;28;19955;-48
2022/04/01 07:25:09;;;;;;;;;;;2.40;99.90;;;;;;5013241;28;19973;-49
2022/04/01 07:27:35;;;;;;;;;;;2.40;99.90;;;;;;5012976;28;19948;-48
2022/04/01 07:30:01;;;;;;;;;;;2.40;99.90;;;;;;5013461;28;20641;-46
2022/04/01 07:32:30;;;;;;;;;;;2.50;99.90;;;;;;5013808;28;19926;-46
2022/04/01 07:34:56;;;;;;;;;;;2.40;99.90;;;;;;5011141;28;19933;-48
2022/04/01 07:37:24;;;;;;;;;;;2.50;99.90;;;;;;5007051;28;19937;-46
2022/04/01 07:39:51;;;;;;;;;;;2.50;99.90;;;;;;4994158;28;19932;-48
2022/04/01 07:42:18;;;;;;;;;;;2.50;99.90;;;;;;5006849;28;19985;-46
2022/04/01 07:44:44;;;;;;;;;;;2.50;99.90;;;;;;5013265;28;20037;-47
2022/04/01 07:47:09;;;;;;;;;;;2.60;99.90;;;;;;5012692;28;19930;-49
2022/04/01 07:49:39;;;;;;;;;;;2.60;99.90;;;;;;5013791;28;19925;-48
2022/04/01 07:52:07;;;;;;;;;;;2.60;99.90;;;;;;5012945;28;20394;-49
2022/04/01 07:54:34;;;;;;;;;;;2.60;99.90;;;;;;5014833;28;20458;-47
2022/04/01 07:56:59;;;;;;;;;;;2.60;99.90;;;;;;5011686;28;19925;-52
2022/04/01 07:59:25;;;;;;;;;;;2.60;99.90;;;;;;4991015;28;20372;-50
2022/04/01 08:01:51;;;;;;;;;;;2.50;99.90;;;;;;5011818;28;20398;-51
2022/04/01 08:04:16;;;;;;;;;;;2.50;99.90;;;;;;5013685;28;19925;-47
2022/04/01 08:06:42;;;;;;;;;;;2.40;99.90;;;;;;5014679;28;19987;-47
2022/04/01 08:09:08;;;;;;;;;;;2.40;99.90;;;;;;5010874;28;20299;-50
2022/04/01 08:11:33;;;;;;;;;;;2.40;99.90;;;;;;4985469;28;20021;-50
2022/04/01 08:13:59;;;;;;;;;;;2.40;99.90;;;;;;5005034;28;19926;-51
2022/04/01 08:16:24;;;;;;;;;;;2.40;99.90;;;;;;5006761;28;19925;-51
2022/04/01 08:18:50;;;;;;;;;;;2.30;99.90;;;;;;5010647;28;19934;-49
2022/04/01 08:21:16;;;;;;;;;;;2.40;99.90;;;;;;5010931;28;19926;-51
2022/04/01 08:23:42;;;;;;;;;;;2.40;99.90;;;;;;5011939;28;19980;-47
2022/04/01 08:26:07;;;;;;;;;;;2.60;99.90;;;;;;4994247;28;19987;-47
2022/04/01 08:28:33;;;;;;;;;;;2.60;99.90;;;;;;5007379;28;19926;-46
2022/04/01 08:30:59;;;;;;;;;;;2.70;99.90;;;;;;4988036;28;20331;-47
2022/04/01 08:33:25;;;;;;;;;;;2.60;99.90;;;;;;5009899;28;19979;-46
2022/04/01 08:35:50;;;;;;;;;;;2.70;99.90;;;;;;5007651;28;19935;-48
2022/04/01 08:38:16;;;;;;;;;;;2.60;99.90;;;;;;5009668;28;19926;-47
2022/04/01 08:40:41;;;;;;;;;;;2.50;99.90;;;;;;5008747;28;20004;-47
2022/04/01 08:43:07;;;;;;;;;;;2.50;99.90;;;;;;5008142;28;19986;-48
2022/04/01 08:45:34;;;;;;;;;;;2.50;99.90;;;;;;5011139;28;19926;-46
2022/04/01 08:48:00;;;;;;;;;;;2.30;99.90;;;;;;5010573;28;19926;-46
2022/04/01 08:50:26;;;;;;;;;;;2.30;99.90;;;;;;5013628;28;20330;-47
2022/04/01 08:52:52;;;;;;;;;;;2.30;99.90;;;;;;4976330;28;19933;-46
2022/04/01 08:55:18;;;;;;;;;;;2.30;99.90;;;;;;4998168;28;19925;-46
2022/04/01 08:57:43;;;;;;;;;;;2.40;99.90;;;;;;4993034;28;20027;-47
2022/04/01 09:00:15;;;;;;;;;;;2.70;99.90;;;;;;4992511;28;19926;-48
2022/04/01 09:02:41;;;;;;;;;;;2.70;99.90;;;;;;4988912;28;19926;-46
2022/04/01 09:05:07;;;;;;;;;;;2.60;99.90;;;;;;4993761;28;20282;-44
2022/04/01 09:07:32;;;;;;;;;;;2.60;99.90;;;;;;4976517;28;19980;-44
2022/04/01 09:10:02;;;;;;;;;;;2.70;99.90;;;;;;4992926;28;19965;-44
2022/04/01 09:12:29;;;;;;;;;;;3.00;99.90;;;;;;4993684;28;20285;-44
2022/04/01 09:14:55;;;;;;;;;;;2.90;99.90;;;;;;4993474;28;20020;-45
2022/04/01 09:17:21;;;;;;;;;;;2.80;99.90;;;;;;4993661;28;19925;-44
2022/04/01 09:19:46;;;;;;;;;;;2.90;99.90;;;;;;4991766;28;19926;-43
2022/04/01 09:22:23;;;;;;;;;;;3.20;99.90;;;;;;4986727;28;19953;-44
2022/04/01 09:24:58;;;;;;;;;;;3.40;99.90;;;;;;4993757;28;19941;-44
2022/04/01 09:27:39;;;;;;;;;;;3.40;99.90;;;;;;4993513;28;19926;-46
2022/04/01 09:30:06;;;;;;;;;;;3.60;99.90;;;;;;4994038;28;19925;-46
2022/04/01 09:32:58;;;;;;;;;;;3.40;99.90;;;;;;4993507;28;19980;-47
2022/04/01 09:35:24;;;;;;;;;;;;;;;;;;4988577;28;19933;-47
2022/04/01 09:37:51;;;;;;;;;;;3.50;99.90;;;;;;4993203;28;20454;-48
2022/04/01 09:40:20;;;;;;;;;;;3.50;99.90;;;;;;4993942;28;19926;-46
2022/04/01 09:42:48;;;;;;;;;;;3.40;99.90;;;;;;4992711;28;19973;-47
2022/04/01 09:45:20;;;;;;;;;;;3.50;99.90;;;;;;4992639;28;19926;-53
2022/04/01 09:47:56;;;;;;;;;;;3.50;99.90;;;;;;4993162;28;19933;-48
2022/04/01 09:50:25;;;;;;;;;;;3.40;99.90;;;;;;4981579;28;19989;-47
2022/04/01 09:52:51;;;;;;;;;;;3.40;99.90;;;;;;5005712;28;19987;-47
2022/04/01 09:55:17;;;;;;;;;;;3.30;99.90;;;;;;5012359;28;19925;-47
2022/04/01 09:57:42;;;;;;;;;;;3.20;99.90;;;;;;5012925;28;20311;-47
2022/04/01 10:00:09;;;;;;;;;;;3.30;99.90;;;;;;4995606;28;20335;-50
2022/04/01 10:02:35;;;;;;;;;;;3.30;99.90;;;;;;5012109;28;19929;-49
2022/04/01 10:05:01;;;;;;;;;;;3.40;99.90;;;;;;5012322;28;19970;-48
2022/04/01 10:07:29;;;;;;;;;;;3.30;99.90;;;;;;4995584;28;19929;-47
2022/04/01 10:09:55;;;;;;;;;;;3.40;99.90;;;;;;5013194;28;19980;-50
2022/04/01 10:12:23;;;;;;;;;;;3.40;99.90;;;;;;5012799;28;19933;-47
2022/04/01 10:14:54;;;;;;;;;;;3.40;99.90;;;;;;5008603;28;20396;-50
2022/04/01 10:17:21;;;;;;;;;;;3.30;99.90;;;;;;5009201;28;19976;-47
2022/04/01 10:19:47;;;;;;;;;;;3.30;99.90;;;;;;5008943;28;19926;-51
2022/04/01 10:22:16;;;;;;;;;;;3.40;99.90;;;;;;5009024;28;19977;-49
2022/04/01 10:24:48;;;;;;;;;;;3.60;99.90;;;;;;5011257;28;19972;-49
2022/04/01 10:27:33;;;;;;;;;;;3.80;99.90;;;;;;5012155;28;19926;-50
2022/04/01 10:29:59;;;;;;;;;;;3.60;99.90;;;;;;5011915;28;19925;-48
2022/04/01 10:32:25;;;;;;;;;;;3.90;99.90;;;;;;5012528;28;19933;-51
2022/04/01 10:34:53;;;;;;;;;;;3.80;99.90;;;;;;5012546;28;19932;-51
2022/04/01 10:37:21;;;;;;;;;;;3.70;99.90;;;;;;5012654;28;20405;-50
2022/04/01 10:39:53;;;;;;;;;;;3.80;99.90;;;;;;5012426;28;19926;-49
2022/04/01 10:42:23;;;;;;;;;;;3.90;99.90;;;;;;5012494;28;20016;-50
2022/04/01 10:44:56;;;;;;;;;;;3.90;99.90;;;;;;5012147;28;20419;-49
2022/04/01 10:53:41;;;;;;;;;;;3.90;99.90;;;;;;5011805;28;19925;-47
2022/04/01 10:56:25;;;;;;;;;;;4.00;99.90;;;;;;5015933;28;19925;-47
2022/04/01 10:59:04;;;;;;;;;;;4.00;99.90;;;;;;5014801;28;19925;-47
2022/04/01 11:01:30;;;;;;;;;;;4.00;99.90;;;;;;5014990;28;20019;-47
2022/04/01 11:04:21;;;;;;;;;;;4.10;99.90;;;;;;5015076;28;20003;-47
2022/04/01 11:07:00;;;;;;;;;;;4.00;99.90;;;;;;4997473;28;19921;-48
2022/04/01 11:09:46;;;;;;;;;;;3.80;99.90;;;;;;5015756;28;19925;-47
2022/04/01 11:12:15;;;;;;;;;;;3.80;99.90;;;;;;5014593;28;19925;-47
2022/04/01 11:15:11;;;;;;;;;;;4.00;99.90;;;;;;5015897;28;19960;-48
2022/04/01 11:17:37;;;;;;;;;;;4.00;99.90;;;;;;5014619;28;19929;-47
2022/04/01 11:20:06;;;;;;;;;;;4.10;99.90;;;;;;5014390;28;19933;-49
2022/04/01 11:22:39;;;;;;;;;;;4.00;99.90;;;;;;5012480;28;20268;-50
2022/04/01 11:25:05;;;;;;;;;;;4.00;99.90;;;;;;5014972;28;19933;-52
2022/04/01 11:27:33;;;;;;;;;;;3.80;99.90;;;;;;5013887;28;19926;-50
2022/04/01 11:30:07;;;;;;;;;;;3.80;99.90;;;;;;5015530;28;19968;-48
2022/04/01 11:32:36;;;;;;;;;;;4.00;99.90;;;;;;5015000;28;20383;-48
2022/04/01 11:35:03;;;;;;;;;;;3.80;99.90;;;;;;4997310;28;19972;-48
2022/04/01 11:37:28;;;;;;;;;;;3.90;99.90;;;;;;5014844;28;19948;-50
2022/04/01 11:40:05;;;;;;;;;;;4.00;99.90;;;;;;5015254;28;20376;-48
2022/04/01 11:42:31;;;;;;;;;;;4.00;99.90;;;;;;5014573;28;19925;-47
2022/04/01 11:44:58;;;;;;;;;;;4.00;99.90;;;;;;5015365;28;19988;-47
2022/04/01 11:47:35;;;;;;;;;;;3.80;99.90;;;;;;5011705;28;20403;-47
2022/04/01 11:50:05;;;;;;;;;;;3.80;99.90;;;;;;5014384;28;19925;-48
2022/04/01 11:52:40;;;;;;;;;;;3.70;99.90;;;;;;5014269;28;19973;-47
2022/04/01 11:55:10;;;;;;;;;;;3.80;99.90;;;;;;5015122;28;19975;-47
2022/04/01 11:57:36;;;;;;;;;;;4.00;99.90;;;;;;5015033;28;19933;-47
2022/04/01 12:00:02;;;;;;;;;;;3.90;99.90;;;;;;5015199;28;19925;-48
2022/04/01 12:02:28;;;;;;;;;;;3.90;99.90;;;;;;5014906;28;19925;-47
2022/04/01 12:04:53;;;;;;;;;;;3.90;99.90;;;;;;5014353;28;19983;-48
2022/04/01 12:10:04;;;;;;;;;;;3.80;99.90;;;;;;5014851;28;20075;-47
2022/04/01 12:12:30;;;;;;;;;;;3.80;99.90;;;;;;5015064;28;20012;-48
2022/04/01 12:14:57;;;;;;;;;;;3.80;99.90;;;;;;5015180;28;20014;-47
2022/04/01 12:17:22;;;;;;;;;;;4.00;99.90;;;;;;5014904;28;19925;-47
2022/04/01 12:19:48;;;;;;;;;;;4.00;99.90;;;;;;5014846;28;19925;-50
2022/04/01 12:22:14;;;;;;;;;;;4.10;99.90;;;;;;4997051;28;19926;-50
2022/04/01 12:24:39;;;;;;;;;;;3.80;99.90;;;;;;5014671;28;19925;-50
2022/04/01 12:27:06;;;;;;;;;;;3.70;99.90;;;;;;5014558;28;19925;-48
2022/04/01 12:29:32;;;;;;;;;;;3.70;99.90;;;;;;4997100;28;19957;-48
2022/04/01 12:31:58;;;;;;;;;;;3.70;99.90;;;;;;5014375;28;20481;-49
2022/04/01 12:34:24;;;;;;;;;;;3.70;99.90;;;;;;5014060;28;19932;-47
2022/04/01 12:36:51;;;;;;;;;;;3.80;99.90;;;;;;4996750;28;20308;-48
2022/04/01 12:39:16;;;;;;;;;;;3.80;99.90;;;;;;4996898;28;19926;-48
2022/04/01 12:41:53;;;;;;;;;;;3.80;99.90;;;;;;5014517;28;20331;-49
2022/04/01 12:44:21;;;;;;;;;;;3.80;99.90;;;;;;5014453;28;20371;-48
2022/04/01 12:46:48;;;;;;;;;;;3.80;99.90;;;;;;4996536;28;19973;-49
2022/04/01 12:49:15;;;;;;;;;;;3.80;99.90;;;;;;5013928;28;20403;-49
2022/04/01 12:51:48;;;;;;;;;;;3.70;99.90;;;;;;5013854;28;19926;-50
2022/04/01 12:54:23;;;;;;;;;;;3.80;99.90;;;;;;5014161;28;19993;-48
2022/04/01 12:56:51;;;;;;;;;;;3.80;99.90;;;;;;5014165;28;19929;-49
2022/04/01 12:59:18;;;;;;;;;;;3.90;99.90;;;;;;4996464;28;19967;-48
2022/04/01 13:01:45;;;;;;;;;;;3.90;99.90;;;;;;5013737;28;20020;-50
2022/04/01 13:04:18;;;;;;;;;;;4.00;99.90;;;;;;5014021;28;19925;-49
2022/04/01 13:07:03;;;;;;;;;;;3.90;99.90;;;;;;5013759;28;19937;-47
2022/04/01 13:09:29;;;;;;;;;;;3.80;99.90;;;;;;5014066;28;20284;-48
2022/04/01 13:11:56;;;;;;;;;;;3.90;99.90;;;;;;5013840;28;19926;-47
2022/04/01 13:14:22;;;;;;;;;;;3.80;99.90;;;;;;5013713;28;19925;-47
2022/04/01 13:16:49;;;;;;;;;;;3.80;99.90;;;;;;5012835;28;20388;-48
2022/04/01 13:19:16;;;;;;;;;;;3.90;99.90;;;;;;5013845;28;19932;-47
2022/04/01 13:21:42;;;;;;;;;;;3.90;99.90;;;;;;5013955;28;20299;-47
2022/04/01 13:24:07;;;;;;;;;;;3.90;99.90;;;;;;5013767;28;19925;-47
2022/04/01 13:26:32;;;;;;;;;;;4.00;99.90;;;;;;5013509;28;20004;-47
2022/04/01 13:28:58;;;;;;;;;;;4.00;99.90;;;;;;5013586;28;19930;-49
2022/04/01 13:31:24;;;;;;;;;;;4.10;99.90;;;;;;5013726;28;19933;-47
2022/04/01 13:33:49;;;;;;;;;;;4.10;99.90;;;;;;5013693;28;20380;-49
2022/04/01 13:36:14;;;;;;;;;;;4.00;99.90;;;;;;5013305;28;19968;-47
2022/04/01 13:38:40;;;;;;;;;;;4.10;99.90;;;;;;5013397;28;19926;-49
2022/04/01 13:41:05;;;;;;;;;;;4.10;99.90;;;;;;5013336;28;20399;-49
2022/04/01 13:43:31;;;;;;;;;;;4.00;99.90;;;;;;5013642;28;20306;-47
2022/04/01 13:45:57;;;;;;;;;;;4.00;99.90;;;;;;5013310;28;19980;-49
2022/04/01 13:48:24;;;;;;;;;;;4.00;99.90;;;;;;5013500;28;19983;-47
2022/04/01 13:50:52;;;;;;;;;;;4.00;99.90;;;;;;5013184;28;19925;-47
2022/04/01 13:53:18;;;;;;;;;;;4.10;99.90;;;;;;5013479;28;19929;-46
2022/04/01 13:55:43;;;;;;;;;;;4.00;99.90;;;;;;5013347;28;19926;-48
2022/04/01 13:58:10;;;;;;;;;;;4.10;99.90;;;;;;5013449;28;20368;-47
2022/04/01 14:00:35;;;;;;;;;;;4.10;99.90;;;;;;5013461;28;20402;-48
2022/04/01 14:03:01;;;;;;;;;;;4.10;99.90;;;;;;5013431;28;19953;-50
2022/04/01 14:05:27;;;;;;;;;;;4.10;99.90;;;;;;4995625;28;20410;-48
2022/04/01 14:07:52;;;;;;;;;;;4.10;99.90;;;;;;5013074;28;19995;-49
2022/04/01 14:10:18;;;;;;;;;;;4.10;99.90;;;;;;5013218;28;20316;-49
2022/04/01 14:12:43;;;;;;;;;;;4.10;99.90;;;;;;5013367;28;19933;-50
2022/04/01 14:15:09;;;;;;;;;;;4.10;99.90;;;;;;5013190;28;20307;-49
2022/04/01 14:17:34;;;;;;;;;;;4.20;99.90;;;;;;5013205;28;19925;-48
2022/04/01 14:20:00;;;;;;;;;;;4.30;99.90;;;;;;5013060;28;19925;-50
2022/04/01 14:22:26;;;;;;;;;;;4.20;99.90;;;;;;5013264;28;20371;-47
2022/04/01 14:24:51;;;;;;;;;;;4.20;99.90;;;;;;5013118;28;19926;-49
2022/04/01 14:27:17;;;;;;;;;;;4.20;99.90;;;;;;5013202;28;20328;-48
2022/04/01 14:32:27;;;;;;;;;;;4.30;99.90;;;;;;4999466;28;19980;-50
2022/04/01 14:34:52;;;;;;;;;;;4.20;99.90;;;;;;5016708;28;19930;-47
2022/04/01 14:37:17;;;;;;;;;;;4.20;99.90;;;;;;5016506;28;19933;-49
2022/04/01 14:39:43;;;;;;;;;;;4.20;99.90;;;;;;5016716;28;19992;-47
2022/04/01 14:42:08;;;;;;;;;;;4.20;99.90;;;;;;4998961;28;20387;-48
2022/04/01 14:44:34;;;;;;;;;;;4.20;99.90;;;;;;5016723;28;19988;-47
2022/04/01 14:47:01;;;;;;;;;;;4.10;99.90;;;;;;5016412;28;19969;-47
2022/04/01 14:49:27;;;;;;;;;;;4.10;99.90;;;;;;5016554;28;19968;-47
2022/04/01 14:51:53;;;;;;;;;;;4.10;99.90;;;;;;5016004;28;20507;-47
2022/04/01 14:54:19;;;;;;;;;;;4.20;99.90;;;;;;5016401;28;19926;-50
2022/04/01 14:56:45;;;;;;;;;;;4.30;99.90;;;;;;5016375;28;20009;-50
2022/04/01 14:59:11;;;;;;;;;;;4.30;99.90;;;;;;5016322;28;19926;-50
2022/04/01 15:01:36;;;;;;;;;;;4.30;99.90;;;;;;5016158;28;19926;-50
2022/04/01 15:04:02;;;;;;;;;;;4.20;99.90;;;;;;5016113;28;19925;-49
2022/04/01 15:06:27;;;;;;;;;;;4.20;99.90;;;;;;5016131;28;19925;-49
2022/04/01 15:08:53;;;;;;;;;;;4.20;99.90;;;;;;5016202;28;20012;-49
2022/04/01 15:11:19;;;;;;;;;;;4.20;99.90;;;;;;5016128;28;20368;-47
2022/04/01 15:13:45;;;;;;;;;;;4.30;99.90;;;;;;5016138;28;19933;-47
2022/04/01 15:16:11;;;;;;;;;;;4.30;99.90;;;;;;5015887;28;20303;-49
2022/04/01 15:18:37;;;;;;;;;;;4.30;99.90;;;;;;5016098;28;20386;-47
2022/04/01 15:21:03;;;;;;;;;;;4.40;99.90;;;;;;5015797;28;20439;-49
2022/04/01 15:23:29;;;;;;;;;;;4.40;99.90;;;;;;5016011;28;19977;-47
2022/04/01 15:25:55;;;;;;;;;;;4.40;99.90;;;;;;4981793;28;19965;-47
2022/04/01 15:28:21;;;;;;;;;;;4.40;99.90;;;;;;5015563;28;20479;-48
2022/04/01 15:30:47;;;;;;;;;;;4.40;99.90;;;;;;5015494;28;19941;-48